Time;durP1;ratioP1;P1;durP2;ratioP2;P2;SDS_P1;SDS_P2;PMS_P1;PMS_P2;Temp;Humidity;BMP_temperature;BMP_pressure;BME280_temperature;BME280_humidity;BME280_pressure;Samples;Min_cycle;Max_cycle;Signal;HPM_P1;HPM_P2
2023/12/31 00:01:18;;;;;;;0.80;0.80;;;3.50;1.00;;;;;;5118343;28;20217;-81
2023/12/31 00:03:44;;;;;;;0.80;0.80;;;3.40;1.00;;;;;;5118594;28;20188;-81
2023/12/31 00:06:10;;;;;;;0.83;0.83;;;3.40;1.00;;;;;;5117266;28;20208;-81
2023/12/31 00:08:35;;;;;;;0.83;0.83;;;3.40;1.00;;;;;;5114320;28;20246;-79
2023/12/31 00:11:02;;;;;;;0.83;0.83;;;3.40;1.00;;;;;;5116251;28;20173;-80
2023/12/31 00:13:27;;;;;;;0.80;0.80;;;3.40;1.00;;;;;;5119684;28;20173;-82
2023/12/31 00:15:54;;;;;;;0.90;0.90;;;3.40;1.00;;;;;;5119713;28;20199;-81
2023/12/31 00:18:20;;;;;;;0.80;0.80;;;3.30;1.00;;;;;;5120224;28;20177;-82
2023/12/31 00:20:46;;;;;;;0.80;0.80;;;3.30;1.00;;;;;;5117617;28;20224;-80
2023/12/31 00:23:13;;;;;;;0.90;0.90;;;3.30;1.00;;;;;;5119852;28;20165;-82
2023/12/31 00:25:39;;;;;;;0.80;0.80;;;3.20;1.00;;;;;;5120014;28;20193;-80
2023/12/31 00:28:05;;;;;;;1.00;1.00;;;3.20;1.00;;;;;;5118912;28;20562;-81
2023/12/31 00:30:31;;;;;;;1.00;1.00;;;3.20;1.00;;;;;;5137862;28;20192;-78
2023/12/31 00:32:57;;;;;;;0.83;0.83;;;3.20;1.00;;;;;;5137274;28;20215;-78
2023/12/31 00:35:23;;;;;;;1.00;1.00;;;3.10;1.00;;;;;;5137983;28;20181;-77
2023/12/31 00:37:48;;;;;;;0.80;0.80;;;3.10;1.00;;;;;;5136122;28;20181;-82
2023/12/31 00:40:14;;;;;;;0.80;0.80;;;3.10;1.00;;;;;;5117896;28;20223;-81
2023/12/31 00:42:40;;;;;;;0.80;0.80;;;3.10;1.00;;;;;;5117559;28;20630;-81
2023/12/31 00:45:06;;;;;;;0.80;0.80;;;3.00;1.00;;;;;;5116400;28;20165;-79
2023/12/31 00:47:33;;;;;;;0.87;0.87;;;3.10;1.00;;;;;;5116997;27;20193;-81
2023/12/31 00:49:59;;;;;;;0.80;0.80;;;3.00;1.00;;;;;;5117079;28;20232;-81
2023/12/31 00:52:24;;;;;;;0.83;0.83;;;3.00;1.00;;;;;;5115214;28;20678;-81
2023/12/31 00:54:50;;;;;;;0.80;0.80;;;3.00;1.00;;;;;;5116976;28;20198;-82
2023/12/31 00:57:16;;;;;;;1.00;1.00;;;2.90;1.00;;;;;;5115613;28;20188;-81
2023/12/31 00:59:42;;;;;;;0.83;0.83;;;2.90;1.00;;;;;;5115979;28;20169;-81
2023/12/31 01:02:08;;;;;;;1.00;1.00;;;2.90;1.00;;;;;;5115943;28;20184;-81
2023/12/31 01:04:35;;;;;;;0.70;0.70;;;2.90;1.00;;;;;;5116094;28;20169;-82
2023/12/31 01:07:00;;;;;;;0.83;0.83;;;2.90;1.00;;;;;;5116172;28;20209;-80
2023/12/31 01:09:26;;;;;;;0.80;0.80;;;2.90;1.00;;;;;;5116114;28;20177;-80
2023/12/31 01:11:51;;;;;;;0.90;0.90;;;2.80;1.00;;;;;;5115696;28;20208;-81
2023/12/31 01:14:17;;;;;;;0.90;0.90;;;2.80;1.00;;;;;;5115716;28;20169;-81
2023/12/31 01:16:42;;;;;;;1.00;1.00;;;2.70;1.00;;;;;;5115393;28;20193;-80
2023/12/31 01:19:08;;;;;;;0.83;0.83;;;2.70;1.00;;;;;;5115796;28;20169;-80
2023/12/31 01:21:34;;;;;;;0.90;0.90;;;2.70;1.00;;;;;;5120261;28;20172;-82
2023/12/31 01:23:59;;;;;;;0.90;0.90;;;2.60;1.00;;;;;;5119920;28;20169;-81
2023/12/31 01:26:25;;;;;;;0.80;0.80;;;2.60;1.00;;;;;;5119276;28;20684;-81
2023/12/31 01:28:50;;;;;;;0.90;0.90;;;2.60;1.00;;;;;;5119544;28;20176;-81
2023/12/31 01:31:19;;;;;;;0.80;0.80;;;2.50;1.00;;;;;;5120010;28;20189;-79
2023/12/31 01:33:45;;;;;;;0.80;0.80;;;2.60;1.00;;;;;;5119731;28;20177;-81
2023/12/31 01:36:17;;;;;;;0.80;0.80;;;2.50;1.00;;;;;;5119166;28;20199;-81
2023/12/31 01:38:43;;;;;;;0.90;0.90;;;2.40;1.00;;;;;;5119534;28;20173;-82
2023/12/31 01:41:09;;;;;;;0.90;0.90;;;2.30;1.00;;;;;;5119991;28;20656;-80
2023/12/31 01:43:38;;;;;;;0.80;0.80;;;2.30;1.00;;;;;;5120159;28;20181;-81
2023/12/31 01:46:05;;;;;;;0.90;0.90;;;2.20;1.00;;;;;;5119140;28;20245;-81
2023/12/31 01:48:31;;;;;;;0.80;0.80;;;2.20;1.00;;;;;;5120110;28;20187;-81
2023/12/31 01:50:57;;;;;;;0.80;0.80;;;2.20;1.00;;;;;;5122196;28;20176;-78
2023/12/31 01:53:23;;;;;;;0.80;0.80;;;2.20;1.00;;;;;;5123150;28;20211;-81
2023/12/31 01:55:50;;;;;;;0.80;0.80;;;2.20;1.00;;;;;;5119718;28;20288;-81
2023/12/31 01:58:16;;;;;;;0.83;0.83;;;2.20;1.00;;;;;;5122118;28;20505;-81
2023/12/31 02:00:42;;;;;;;0.90;0.90;;;2.20;1.00;;;;;;5120852;28;20207;-80
2023/12/31 02:03:08;;;;;;;0.80;0.80;;;2.20;1.00;;;;;;5121318;28;20169;-82
2023/12/31 02:05:35;;;;;;;0.90;0.90;;;2.20;1.00;;;;;;5120356;28;20232;-80
2023/12/31 02:08:01;;;;;;;0.90;0.90;;;2.10;1.00;;;;;;5121653;28;20245;-81
2023/12/31 02:10:27;;;;;;;0.90;0.90;;;2.10;1.00;;;;;;5121287;28;20236;-80
2023/12/31 02:12:53;;;;;;;0.87;0.87;;;2.20;1.00;;;;;;5120981;28;20287;-80
2023/12/31 02:15:34;;;;;;;1.00;1.00;;;2.20;1.00;;;;;;5120129;28;20193;-81
2023/12/31 02:18:02;;;;;;;0.83;0.83;;;2.10;1.00;;;;;;5121167;28;20169;-79
2023/12/31 02:20:31;;;;;;;0.80;0.80;;;2.20;1.00;;;;;;5120392;28;20197;-81
2023/12/31 02:22:57;;;;;;;0.90;0.90;;;2.20;1.00;;;;;;5120793;28;20180;-81
2023/12/31 02:25:37;;;;;;;0.90;0.90;;;2.10;1.00;;;;;;5123191;28;20169;-78
2023/12/31 02:28:03;;;;;;;0.90;0.90;;;2.20;1.00;;;;;;5127550;28;20189;-79
2023/12/31 02:30:28;;;;;;;0.90;0.90;;;2.20;1.00;;;;;;5125176;28;20557;-78
2023/12/31 02:32:54;;;;;;;0.90;0.90;;;2.20;1.00;;;;;;5122032;28;20205;-81
2023/12/31 02:35:19;;;;;;;1.00;1.00;;;2.20;1.00;;;;;;5118698;28;20259;-81
2023/12/31 02:37:45;;;;;;;1.00;1.00;;;2.20;1.00;;;;;;5118866;28;20181;-81
2023/12/31 02:40:11;;;;;;;0.90;0.90;;;2.20;1.00;;;;;;5119375;28;20165;-81
2023/12/31 02:42:36;;;;;;;0.90;0.90;;;2.30;1.00;;;;;;5119386;28;20271;-81
2023/12/31 02:45:02;;;;;;;0.90;0.90;;;2.30;1.00;;;;;;5116955;28;20185;-82
2023/12/31 02:47:27;;;;;;;0.80;0.80;;;2.40;1.00;;;;;;5118329;28;20256;-81
2023/12/31 02:49:53;;;;;;;0.90;0.90;;;2.40;1.00;;;;;;5118925;28;20169;-81
2023/12/31 02:52:18;;;;;;;0.90;0.90;;;2.40;1.00;;;;;;5118520;28;20203;-80
2023/12/31 02:54:45;;;;;;;0.90;0.90;;;2.40;1.00;;;;;;5119012;28;20207;-82
2023/12/31 02:57:11;;;;;;;0.87;0.87;;;2.50;1.00;;;;;;5118554;28;20192;-81
2023/12/31 02:59:37;;;;;;;0.80;0.80;;;2.50;1.00;;;;;;5118898;28;20169;-80
2023/12/31 03:02:03;;;;;;;0.80;0.80;;;2.50;1.00;;;;;;5118804;28;20172;-81
2023/12/31 03:04:29;;;;;;;0.90;0.90;;;2.60;1.00;;;;;;5118450;28;20623;-81
2023/12/31 03:06:55;;;;;;;0.80;0.80;;;2.60;1.00;;;;;;5118340;28;20207;-80
2023/12/31 03:09:23;;;;;;;0.80;0.80;;;2.70;1.00;;;;;;5118920;28;20176;-81
2023/12/31 03:11:50;;;;;;;0.80;0.80;;;2.80;1.00;;;;;;5118933;27;20201;-79
2023/12/31 03:14:16;;;;;;;0.80;0.80;;;2.80;1.00;;;;;;5119393;28;20174;-81
2023/12/31 03:16:45;;;;;;;0.97;0.97;;;2.20;1.00;;;;;;5118750;28;20192;-81
2023/12/31 03:19:14;;;;;;;0.80;0.80;;;2.90;1.00;;;;;;5119916;27;20594;-81
2023/12/31 03:21:40;;;;;;;0.90;0.90;;;2.90;1.00;;;;;;5119397;28;20180;-81
2023/12/31 03:24:07;;;;;;;0.80;0.80;;;3.00;1.00;;;;;;5119126;28;20177;-81
2023/12/31 03:26:33;;;;;;;0.90;0.90;;;3.00;1.00;;;;;;5118750;28;20205;-81
2023/12/31 03:28:58;;;;;;;0.80;0.80;;;3.00;1.00;;;;;;5118963;28;20181;-81
2023/12/31 03:31:24;;;;;;;0.80;0.80;;;3.00;1.00;;;;;;5119537;28;20306;-81
2023/12/31 03:33:49;;;;;;;0.90;0.90;;;3.00;1.00;;;;;;5119249;27;20210;-81
2023/12/31 03:36:15;;;;;;;0.90;0.90;;;3.10;1.00;;;;;;5123071;28;20252;-78
2023/12/31 03:38:40;;;;;;;0.83;0.83;;;3.10;1.00;;;;;;5123551;28;20181;-80
2023/12/31 03:41:06;;;;;;;0.70;0.70;;;3.00;1.00;;;;;;5124119;28;20182;-78
2023/12/31 03:43:31;;;;;;;0.80;0.80;;;3.00;1.00;;;;;;5116817;28;20264;-79
2023/12/31 03:45:59;;;;;;;0.70;0.70;;;2.90;1.00;;;;;;5122594;28;20205;-80
2023/12/31 03:48:25;;;;;;;0.80;0.80;;;2.90;1.00;;;;;;5121505;28;20177;-80
2023/12/31 03:50:50;;;;;;;0.80;0.80;;;2.90;1.00;;;;;;5115879;28;20191;-80
2023/12/31 03:53:16;;;;;;;0.80;0.80;;;2.90;1.00;;;;;;5116654;28;20227;-82
2023/12/31 03:55:42;;;;;;;0.90;0.90;;;3.00;1.00;;;;;;5116991;28;20200;-81
2023/12/31 03:58:07;;;;;;;0.87;0.87;;;3.00;1.00;;;;;;5115774;28;20177;-79
2023/12/31 04:00:34;;;;;;;0.80;0.80;;;3.00;1.00;;;;;;5115959;28;20646;-79
2023/12/31 04:03:00;;;;;;;0.80;0.80;;;3.00;1.00;;;;;;5114303;28;20197;-80
2023/12/31 04:05:25;;;;;;;0.87;0.87;;;2.90;1.00;;;;;;5115647;28;20588;-79
2023/12/31 04:07:51;;;;;;;0.80;0.80;;;2.90;1.00;;;;;;5115493;28;20185;-80
2023/12/31 04:10:16;;;;;;;0.80;0.80;;;2.90;1.00;;;;;;5114933;28;20576;-80
2023/12/31 04:12:42;;;;;;;0.93;0.93;;;2.90;1.00;;;;;;5113961;28;20547;-79
2023/12/31 04:15:08;;;;;;;0.80;0.80;;;2.90;1.00;;;;;;5114779;28;20248;-80
2023/12/31 04:17:34;;;;;;;0.80;0.80;;;2.90;1.00;;;;;;5114840;28;20272;-79
2023/12/31 04:20:00;;;;;;;0.90;0.90;;;2.90;1.00;;;;;;5115161;28;20254;-80
2023/12/31 04:22:27;;;;;;;0.80;0.80;;;2.90;1.00;;;;;;5115534;28;20177;-80
2023/12/31 04:24:53;;;;;;;0.90;0.90;;;2.90;1.00;;;;;;5115058;28;20174;-81
2023/12/31 04:27:19;;;;;;;0.90;0.90;;;2.80;1.00;;;;;;5114944;28;20197;-81
2023/12/31 04:29:45;;;;;;;0.90;0.90;;;2.70;1.00;;;;;;5114935;28;20530;-81
2023/12/31 04:32:10;;;;;;;0.90;0.90;;;2.70;1.00;;;;;;5114475;27;20192;-81
2023/12/31 04:34:36;;;;;;;0.80;0.80;;;2.70;1.00;;;;;;5115103;28;20170;-81
2023/12/31 04:37:02;;;;;;;0.90;0.90;;;2.60;1.00;;;;;;5115419;28;20216;-81
2023/12/31 04:39:27;;;;;;;0.90;0.90;;;2.60;1.00;;;;;;5115973;28;20216;-81
2023/12/31 04:41:54;;;;;;;0.80;0.80;;;2.60;1.00;;;;;;5116192;28;20177;-81
2023/12/31 04:44:20;;;;;;;0.90;0.90;;;2.60;1.00;;;;;;5116016;28;20165;-80
2023/12/31 04:46:46;;;;;;;0.80;0.80;;;2.60;1.00;;;;;;5114501;28;20189;-78
2023/12/31 04:49:15;;;;;;;0.90;0.90;;;2.70;1.00;;;;;;5116649;28;20165;-80
2023/12/31 04:51:41;;;;;;;0.87;0.87;;;2.70;1.00;;;;;;5116194;28;20197;-80
2023/12/31 04:54:07;;;;;;;1.00;1.00;;;2.70;1.00;;;;;;5115853;28;20517;-80
2023/12/31 04:56:33;;;;;;;0.80;0.80;;;2.70;1.00;;;;;;5115814;28;20234;-80
2023/12/31 04:58:59;;;;;;;0.90;0.90;;;2.70;1.00;;;;;;5116477;28;20661;-80
2023/12/31 05:01:31;;;;;;;1.00;1.00;;;2.70;1.00;;;;;;5116902;28;20180;-80
2023/12/31 05:03:58;;;;;;;0.90;0.90;;;2.70;1.00;;;;;;5116797;28;20181;-80
2023/12/31 05:06:24;;;;;;;1.00;1.00;;;2.70;1.00;;;;;;5116392;28;20537;-80
2023/12/31 05:08:50;;;;;;;0.83;0.83;;;2.70;1.00;;;;;;5116512;28;20203;-80
2023/12/31 05:11:15;;;;;;;0.87;0.87;;;2.70;1.00;;;;;;5117054;28;20248;-82
2023/12/31 05:13:42;;;;;;;0.90;0.90;;;2.70;1.00;;;;;;5116134;28;20183;-81
2023/12/31 05:16:15;;;;;;;0.80;0.80;;;2.70;1.00;;;;;;5114664;28;20208;-80
2023/12/31 05:18:50;;;;;;;0.90;0.90;;;2.70;1.00;;;;;;5114805;28;20236;-80
2023/12/31 05:21:16;;;;;;;0.90;0.90;;;2.60;1.00;;;;;;5116350;28;20556;-80
2023/12/31 05:23:41;;;;;;;0.90;0.90;;;2.60;1.00;;;;;;5117067;28;20173;-77
2023/12/31 05:26:07;;;;;;;0.90;0.90;;;2.60;1.00;;;;;;5115366;28;20230;-77
2023/12/31 05:28:33;;;;;;;0.90;0.90;;;2.60;1.00;;;;;;5116504;28;20243;-77
2023/12/31 05:31:00;;;;;;;0.90;0.90;;;2.50;1.00;;;;;;5116621;28;20285;-79
2023/12/31 05:33:25;;;;;;;0.90;0.90;;;2.90;1.00;;;;;;5116717;28;20201;-79
2023/12/31 05:35:51;;;;;;;1.00;1.00;;;2.50;1.00;;;;;;5115445;28;20189;-79
2023/12/31 05:38:17;;;;;;;0.90;0.90;;;2.50;1.00;;;;;;5114903;28;20553;-79
2023/12/31 05:40:43;;;;;;;0.90;0.90;;;2.50;1.00;;;;;;5114947;28;20174;-79
2023/12/31 05:43:08;;;;;;;0.90;0.90;;;2.50;1.00;;;;;;5116274;28;20181;-79
2023/12/31 05:45:34;;;;;;;0.90;0.90;;;2.50;1.00;;;;;;5115942;28;20554;-81
2023/12/31 05:48:00;;;;;;;0.93;0.93;;;2.50;1.00;;;;;;5116351;28;20184;-81
2023/12/31 05:50:25;;;;;;;0.90;0.90;;;2.50;1.00;;;;;;5115394;28;20173;-81
2023/12/31 05:52:51;;;;;;;0.90;0.90;;;2.50;1.00;;;;;;5115335;28;20312;-79
2023/12/31 05:55:16;;;;;;;0.70;0.70;;;2.50;1.00;;;;;;5115680;28;20184;-80
2023/12/31 05:57:43;;;;;;;0.83;0.83;;;2.50;1.00;;;;;;5115302;28;20200;-80
2023/12/31 06:00:09;;;;;;;0.80;0.80;;;2.50;1.00;;;;;;5115926;28;20171;-79
2023/12/31 06:02:35;;;;;;;0.90;0.90;;;2.50;1.00;;;;;;5115768;28;20261;-81
2023/12/31 06:05:01;;;;;;;0.90;0.90;;;2.40;1.00;;;;;;5113592;28;20169;-79
2023/12/31 06:07:27;;;;;;;0.90;0.90;;;2.40;1.00;;;;;;5118142;28;20235;-79
2023/12/31 06:09:53;;;;;;;0.90;0.90;;;2.40;1.00;;;;;;5119062;28;20173;-78
2023/12/31 06:12:18;;;;;;;0.90;0.90;;;2.40;1.00;;;;;;5118268;28;20228;-80
2023/12/31 06:14:44;;;;;;;0.80;0.80;;;2.40;1.00;;;;;;5118712;28;20184;-79
2023/12/31 06:17:09;;;;;;;0.97;0.97;;;2.50;1.00;;;;;;5116834;28;20247;-80
2023/12/31 06:19:35;;;;;;;0.90;0.90;;;2.40;1.00;;;;;;5118433;28;20528;-80
2023/12/31 06:22:00;;;;;;;1.00;1.00;;;2.40;1.00;;;;;;5118668;28;20554;-80
2023/12/31 06:24:26;;;;;;;0.80;0.80;;;2.40;1.00;;;;;;5118297;27;20204;-80
2023/12/31 06:26:52;;;;;;;0.90;0.90;;;2.40;1.00;;;;;;5117616;28;20197;-80
2023/12/31 06:29:18;;;;;;;0.80;0.80;;;2.50;1.00;;;;;;5118731;28;20268;-80
2023/12/31 06:31:44;;;;;;;0.83;0.83;;;2.50;1.00;;;;;;5119320;28;20220;-80
2023/12/31 06:34:10;;;;;;;0.90;0.90;;;2.50;1.00;;;;;;5126031;28;20175;-78
2023/12/31 06:36:35;;;;;;;0.90;0.90;;;2.50;1.00;;;;;;5130480;28;20231;-82
2023/12/31 06:39:01;;;;;;;1.00;1.00;;;2.50;1.00;;;;;;5122007;28;20173;-80
2023/12/31 06:41:27;;;;;;;0.90;0.90;;;2.60;1.00;;;;;;5120417;28;20316;-80
2023/12/31 06:43:52;;;;;;;0.90;0.90;;;2.70;1.00;;;;;;5121759;28;20199;-81
2023/12/31 06:46:18;;;;;;;0.97;0.97;;;2.60;1.70;;;;;;5121027;28;20224;-81
2023/12/31 06:48:43;;;;;;;0.80;0.80;;;2.70;5.00;;;;;;5121247;28;20180;-82
2023/12/31 06:51:09;;;;;;;0.90;0.90;;;2.70;1.00;;;;;;5121352;28;20184;-79
2023/12/31 06:53:35;;;;;;;0.80;0.80;;;2.70;1.00;;;;;;5120624;28;20794;-81
2023/12/31 06:56:07;;;;;;;0.97;0.97;;;2.60;1.00;;;;;;5120509;28;20204;-81
2023/12/31 06:58:37;;;;;;;1.00;1.00;;;2.60;1.00;;;;;;5119289;28;20867;-81
2023/12/31 07:01:03;;;;;;;1.00;1.00;;;2.70;1.00;;;;;;5120507;28;20169;-81
2023/12/31 07:03:29;;;;;;;0.90;0.90;;;2.70;1.00;;;;;;5118128;28;20169;-80
2023/12/31 07:05:54;;;;;;;0.83;0.83;;;2.90;1.00;;;;;;5115757;28;20510;-78
2023/12/31 07:08:20;;;;;;;0.80;0.80;;;2.90;1.00;;;;;;5117527;28;20197;-80
2023/12/31 07:10:46;;;;;;;0.90;0.90;;;3.60;1.00;;;;;;5117563;28;20244;-80
2023/12/31 07:13:11;;;;;;;0.90;0.90;;;2.90;1.00;;;;;;5118094;28;20201;-79
2023/12/31 07:15:37;;;;;;;0.80;0.80;;;3.00;1.00;;;;;;5118664;28;20173;-80
2023/12/31 07:18:03;;;;;;;0.90;0.90;;;3.00;1.00;;;;;;5118736;28;20168;-81
2023/12/31 07:20:29;;;;;;;0.80;0.80;;;3.00;1.00;;;;;;5118505;28;20310;-81
2023/12/31 07:22:54;;;;;;;0.90;0.90;;;3.00;1.00;;;;;;5119269;28;20218;-80
2023/12/31 07:25:21;;;;;;;0.90;0.90;;;3.10;1.00;;;;;;5116922;28;20185;-78
2023/12/31 07:27:47;;;;;;;0.70;0.70;;;3.10;1.00;;;;;;5115874;28;20189;-80
2023/12/31 07:30:13;;;;;;;0.90;0.90;;;3.20;1.00;;;;;;5112440;28;20174;-78
2023/12/31 07:32:39;;;;;;;0.80;0.80;;;3.20;1.00;;;;;;5108198;28;20201;-80
2023/12/31 07:35:05;;;;;;;0.80;0.80;;;3.30;4.00;;;;;;5102913;28;20174;-80
2023/12/31 07:37:32;;;;;;;0.90;0.90;;;3.40;11.40;;;;;;5102551;28;20190;-82
2023/12/31 07:40:00;;;;;;;0.80;0.80;;;3.40;7.80;;;;;;5099240;28;20170;-81
2023/12/31 07:42:26;;;;;;;0.90;0.90;;;3.40;9.30;;;;;;5113041;28;20165;-81
2023/12/31 07:44:51;;;;;;;0.90;0.90;;;3.50;20.30;;;;;;5122399;28;20179;-80
2023/12/31 07:47:17;;;;;;;0.90;0.90;;;3.60;14.10;;;;;;5121201;28;20201;-77
2023/12/31 07:49:43;;;;;;;1.00;1.00;;;3.60;20.40;;;;;;5127952;28;20213;-80
2023/12/31 07:52:08;;;;;;;0.70;0.70;;;3.80;21.30;;;;;;5128805;28;20225;-77
2023/12/31 07:54:34;;;;;;;0.70;0.70;;;3.90;11.20;;;;;;5106766;28;20188;-80
2023/12/31 07:57:00;;;;;;;0.80;0.80;;;4.00;1.00;;;;;;5116369;28;20205;-77
2023/12/31 07:59:26;;;;;;;0.70;0.70;;;4.00;1.00;;;;;;5119811;28;20222;-82
2023/12/31 08:01:52;;;;;;;0.80;0.80;;;4.00;1.00;;;;;;5106497;28;20318;-81
2023/12/31 08:04:18;;;;;;;0.80;0.80;;;4.10;1.00;;;;;;5105689;28;20174;-83
2023/12/31 08:06:44;;;;;;;0.73;0.73;;;4.10;1.00;;;;;;5103614;28;20205;-79
2023/12/31 08:09:11;;;;;;;0.83;0.83;;;4.00;1.00;;;;;;5106478;28;20182;-82
2023/12/31 08:11:37;;;;;;;0.80;0.80;;;4.00;1.00;;;;;;5106257;28;20193;-82
2023/12/31 08:14:05;;;;;;;0.80;0.80;;;3.90;1.00;;;;;;5108413;28;20190;-82
2023/12/31 08:16:31;;;;;;;0.90;0.90;;;4.00;5.80;;;;;;5106351;28;20202;-82
2023/12/31 08:18:57;;;;;;;0.90;0.90;;;4.10;22.90;;;;;;5104012;28;20181;-80
2023/12/31 08:21:22;;;;;;;0.83;0.83;;;4.10;13.50;;;;;;5107210;28;20173;-81
2023/12/31 08:23:48;;;;;;;0.90;0.90;;;4.10;29.20;;;;;;5099215;28;20556;-82
2023/12/31 08:26:13;;;;;;;0.80;0.80;;;4.20;40.30;;;;;;5104103;28;20201;-82
2023/12/31 08:28:39;;;;;;;0.80;0.80;;;4.20;31.50;;;;;;5107499;28;20226;-82
2023/12/31 08:31:05;;;;;;;0.70;0.70;;;4.20;43.30;;;;;;5112165;28;20188;-81
2023/12/31 08:33:31;;;;;;;0.90;0.90;;;4.30;52.50;;;;;;5108946;28;20292;-83
2023/12/31 08:35:57;;;;;;;0.73;0.73;;;4.40;43.80;;;;;;5111236;28;20207;-81
2023/12/31 08:38:22;;;;;;;0.70;0.70;;;4.50;29.30;;;;;;5113593;28;20260;-81
2023/12/31 08:40:48;;;;;;;0.70;0.70;;;4.60;13.80;;;;;;5104441;28;20201;-81
2023/12/31 08:43:15;;;;;;;0.70;0.70;;;4.60;2.80;;;;;;5104545;28;20211;-81
2023/12/31 08:45:42;;;;;;;0.80;0.80;;;4.70;1.00;;;;;;5116849;28;20233;-80
2023/12/31 08:48:10;;;;;;;0.70;0.70;;;4.80;1.00;;;;;;5110983;28;20173;-80
2023/12/31 08:50:36;;;;;;;0.70;0.70;;;4.90;1.00;;;;;;5112059;28;20188;-80
2023/12/31 08:53:02;;;;;;;0.80;0.80;;;5.00;1.00;;;;;;5107612;28;20633;-80
2023/12/31 08:55:28;;;;;;;0.60;0.60;;;5.10;1.00;;;;;;5112927;28;20178;-80
2023/12/31 08:57:53;;;;;;;0.80;0.80;;;5.30;1.00;;;;;;5107795;28;20166;-80
2023/12/31 09:00:19;;;;;;;0.40;0.40;;;5.10;1.00;;;;;;5097367;28;20392;-81
2023/12/31 09:02:46;;;;;;;0.70;0.70;;;5.00;1.00;;;;;;5102480;28;20178;-78
2023/12/31 09:05:11;;;;;;;0.60;0.60;;;5.00;1.00;;;;;;5130046;28;20177;-77
2023/12/31 09:07:37;;;;;;;0.80;0.80;;;5.10;1.00;;;;;;5118452;28;20209;-81
2023/12/31 09:10:07;;;;;;;0.70;0.70;;;5.20;1.00;;;;;;5118422;28;20165;-79
2023/12/31 09:12:33;;;;;;;0.70;0.70;;;5.30;1.00;;;;;;5119050;28;20724;-81
2023/12/31 09:14:58;;;;;;;0.70;0.70;;;5.40;1.00;;;;;;5118488;28;20172;-80
2023/12/31 09:17:24;;;;;;;0.77;0.77;;;5.50;1.00;;;;;;5120185;28;20193;-77
2023/12/31 09:19:50;;;;;;;0.70;0.70;;;5.60;1.00;;;;;;5114268;28;20515;-79
2023/12/31 09:22:16;;;;;;;0.60;0.60;;;5.80;1.00;;;;;;5106519;28;20575;-78
2023/12/31 09:24:41;;;;;;;0.63;0.63;;;6.00;1.00;;;;;;5103483;28;20166;-79
2023/12/31 09:27:07;;;;;;;0.70;0.70;;;6.20;1.00;;;;;;5113412;28;20258;-80
2023/12/31 09:29:34;;;;;;;0.67;0.67;;;6.80;1.00;;;;;;5107835;28;20308;-82
2023/12/31 09:32:00;;;;;;;0.60;0.60;;;7.10;99.90;;;;;;5113405;28;20201;-81
2023/12/31 09:34:25;;;;;;;0.70;0.70;;;7.20;99.90;;;;;;5125730;28;20184;-83
2023/12/31 09:36:51;;;;;;;0.70;0.70;;;7.70;1.00;;;;;;5117887;28;20193;-82
2023/12/31 09:39:17;;;;;;;0.70;0.70;;;8.00;1.00;;;;;;5108555;28;20204;-80
2023/12/31 09:41:44;;;;;;;0.70;0.70;;;8.30;1.00;;;;;;5115921;28;20203;-80
2023/12/31 09:44:12;;;;;;;0.60;0.60;;;8.70;99.90;;;;;;5121659;28;20269;-79
2023/12/31 09:46:39;;;;;;;0.60;0.60;;;9.20;1.00;;;;;;5113576;28;20198;-81
2023/12/31 09:49:06;;;;;;;0.67;0.67;;;9.30;99.90;;;;;;5106509;28;20246;-77
2023/12/31 09:51:32;;;;;;;0.60;0.60;;;9.10;99.90;;;;;;5110322;28;20258;-78
2023/12/31 09:53:59;;;;;;;0.60;0.60;;;8.80;99.90;;;;;;5108511;28;20370;-76
2023/12/31 09:56:27;;;;;;;0.70;0.70;;;8.60;1.00;;;;;;5108905;28;20190;-79
2023/12/31 09:58:55;;;;;;;0.50;0.50;;;8.60;99.90;;;;;;5111988;28;20174;-78
2023/12/31 10:01:22;;;;;;;0.50;0.50;;;8.40;1.00;;;;;;5111291;28;20242;-79
2023/12/31 10:03:48;;;;;;;0.70;0.70;;;8.90;99.90;;;;;;5105230;28;20174;-82
2023/12/31 10:06:14;;;;;;;0.60;0.60;;;9.50;1.00;;;;;;5103190;28;20215;-83
2023/12/31 10:08:41;;;;;;;0.60;0.60;;;9.70;1.00;;;;;;5099110;28;20196;-81
2023/12/31 10:11:07;;;;;;;0.70;0.70;;;9.80;1.00;;;;;;5104908;28;20177;-81
2023/12/31 10:13:33;;;;;;;0.60;0.60;;;10.00;1.00;;;;;;5105594;28;20209;-82
2023/12/31 10:15:58;;;;;;;0.53;0.53;;;10.00;1.00;;;;;;5118030;28;20674;-82
2023/12/31 10:18:27;;;;;;;0.50;0.50;;;10.10;99.90;;;;;;5122854;28;20216;-85
2023/12/31 10:20:53;;;;;;;0.53;0.53;;;10.10;99.90;;;;;;5109075;28;20182;-81
2023/12/31 10:23:19;;;;;;;0.67;0.67;;;10.00;99.90;;;;;;5110549;28;20198;-82
2023/12/31 10:25:45;;;;;;;0.60;0.60;;;9.50;1.00;;;;;;5108318;28;20288;-81
2023/12/31 10:28:10;;;;;;;0.60;0.60;;;9.40;1.00;;;;;;5100263;28;20174;-81
2023/12/31 10:30:39;;;;;;;0.50;0.50;;;9.40;1.00;;;;;;5102112;28;20265;-81
2023/12/31 10:33:10;;;;;;;0.70;0.70;;;9.10;1.00;;;;;;5118988;28;20320;-81
2023/12/31 10:35:36;;;;;;;0.70;0.70;;;8.80;1.00;;;;;;5121213;28;20203;-79
2023/12/31 10:38:04;;;;;;;0.60;0.60;;;8.70;99.90;;;;;;5123137;28;20594;-82
2023/12/31 10:40:29;;;;;;;0.60;0.60;;;8.60;1.00;;;;;;5115291;28;20185;-83
2023/12/31 10:42:56;;;;;;;0.70;0.70;;;8.60;1.00;;;;;;5110882;28;20166;-82
2023/12/31 10:45:22;;;;;;;0.70;0.70;;;8.50;1.00;;;;;;5105477;28;20213;-84
2023/12/31 10:47:53;;;;;;;0.60;0.60;;;8.40;7.40;;;;;;5105219;28;20185;-81
2023/12/31 10:50:28;;;;;;;0.70;0.70;;;8.40;1.00;;;;;;5118264;28;20291;-80
2023/12/31 10:52:57;;;;;;;0.60;0.60;;;8.40;1.00;;;;;;5118278;28;20193;-80
2023/12/31 10:55:26;;;;;;;0.60;0.60;;;8.50;1.00;;;;;;5117341;28;20177;-79
2023/12/31 10:57:52;;;;;;;0.70;0.70;;;8.50;1.00;;;;;;5116334;28;20173;-79
2023/12/31 11:00:19;;;;;;;0.70;0.70;;;8.50;1.00;;;;;;5122405;28;20176;-78
2023/12/31 11:02:45;;;;;;;0.60;0.60;;;8.50;1.00;;;;;;5121846;28;20198;-79
2023/12/31 11:05:13;;;;;;;0.70;0.70;;;8.70;1.00;;;;;;5121129;28;20185;-79
2023/12/31 11:07:40;;;;;;;0.60;0.60;;;9.20;99.90;;;;;;5121429;28;20221;-80
2023/12/31 11:10:08;;;;;;;0.60;0.60;;;9.30;18.50;;;;;;5128489;27;20237;-81
2023/12/31 11:12:34;;;;;;;0.60;0.60;;;9.60;1.00;;;;;;5133355;27;20201;-81
2023/12/31 11:15:13;;;;;;;0.60;0.60;;;9.80;1.00;;;;;;5131973;27;20193;-80
2023/12/31 11:17:51;;;;;;;0.50;0.50;;;9.90;1.00;;;;;;5128192;27;20545;-80
2023/12/31 11:20:41;;;;;;;0.60;0.60;;;10.00;99.90;;;;;;5117667;27;20212;-80
2023/12/31 11:23:47;;;;;;;0.63;0.63;;;10.00;99.90;;;;;;5122024;27;20185;-77
2023/12/31 11:26:12;;;;;;;0.60;0.60;;;10.00;99.90;;;;;;5129760;27;20193;-80
2023/12/31 11:28:50;;;;;;;0.63;0.63;;;9.90;99.90;;;;;;5120486;27;20199;-80
2023/12/31 11:31:15;;;;;;;0.70;0.70;;;9.90;1.00;;;;;;5114325;27;20181;-82
2023/12/31 11:33:41;;;;;;;0.60;0.60;;;9.80;1.00;;;;;;5116784;28;20225;-81
2023/12/31 11:36:12;;;;;;;0.70;0.70;;;9.70;1.00;;;;;;5123173;27;20687;-79
2023/12/31 11:39:14;;;;;;;0.70;0.70;;;9.60;1.00;;;;;;5122825;27;20177;-81
2023/12/31 11:41:47;;;;;;;0.60;0.60;;;9.50;1.00;;;;;;5128110;27;20219;-84
2023/12/31 11:44:40;;;;;;;0.70;0.70;;;9.60;99.90;;;;;;5121708;27;20185;-82
2023/12/31 11:47:15;;;;;;;0.70;0.70;;;9.60;99.90;;;;;;5116176;27;20209;-82
2023/12/31 11:49:46;;;;;;;0.60;0.60;;;9.50;99.90;;;;;;5125342;28;20172;-83
2023/12/31 11:52:12;;;;;;;0.67;0.67;;;9.50;99.90;;;;;;5120866;27;20209;-80
2023/12/31 11:54:39;;;;;;;0.70;0.70;;;9.30;1.00;;;;;;5131843;27;20215;-81
2023/12/31 11:57:06;;;;;;;0.63;0.63;;;9.20;1.00;;;;;;5120613;27;20202;-83
2023/12/31 11:59:34;;;;;;;0.70;0.70;;;9.10;99.90;;;;;;5117966;27;20207;-81
2023/12/31 12:02:03;;;;;;;0.60;0.60;;;9.00;1.00;;;;;;5120770;27;20245;-82
2023/12/31 12:04:29;;;;;;;0.70;0.70;;;8.90;1.00;;;;;;5118699;27;20249;-84
2023/12/31 12:06:55;;;;;;;0.80;0.80;;;8.80;1.00;;;;;;5110654;27;20208;-82
2023/12/31 12:09:25;;;;;;;0.60;0.60;;;8.60;99.90;;;;;;5127047;27;20561;-81
2023/12/31 12:11:51;;;;;;;0.70;0.70;;;8.70;99.90;;;;;;5124254;27;20205;-80
2023/12/31 12:14:16;;;;;;;0.60;0.60;;;8.70;99.90;;;;;;5126465;27;20347;-85
2023/12/31 12:16:42;;;;;;;0.70;0.70;;;8.60;1.00;;;;;;5126448;27;20563;-82
2023/12/31 12:19:08;;;;;;;0.60;0.60;;;8.50;1.00;;;;;;5118517;28;20177;-82
2023/12/31 12:21:35;;;;;;;0.70;0.70;;;8.50;1.00;;;;;;5140813;27;20206;-83
2023/12/31 12:24:04;;;;;;;0.70;0.70;;;8.40;1.00;;;;;;5125466;27;20233;-82
2023/12/31 12:26:29;;;;;;;0.70;0.70;;;8.30;1.00;;;;;;5124535;27;20204;-83
2023/12/31 12:28:56;;;;;;;0.60;0.60;;;8.30;1.00;;;;;;5126310;27;20173;-82
2023/12/31 12:31:22;;;;;;;0.70;0.70;;;8.20;1.00;;;;;;5124348;28;20181;-82
2023/12/31 12:33:56;;;;;;;0.50;0.50;;;8.30;1.00;;;;;;5121750;28;20213;-82
2023/12/31 12:36:22;;;;;;;0.70;0.70;;;8.30;1.00;;;;;;5104839;28;20202;-83
2023/12/31 12:38:48;;;;;;;0.60;0.60;;;8.30;1.00;;;;;;5119060;27;20679;-81
2023/12/31 12:41:23;;;;;;;0.70;0.70;;;8.30;1.00;;;;;;5132963;27;20199;-82
2023/12/31 12:44:05;;;;;;;0.70;0.70;;;8.20;1.00;;;;;;5121931;28;20252;-83
2023/12/31 12:46:33;;;;;;;0.63;0.63;;;8.20;1.00;;;;;;5112785;28;20200;-79
2023/12/31 12:48:58;;;;;;;0.80;0.80;;;8.20;1.00;;;;;;5130583;28;20185;-79
2023/12/31 12:51:24;;;;;;;0.80;0.80;;;8.20;1.00;;;;;;5127247;28;20200;-78
2023/12/31 12:53:57;;;;;;;0.70;0.70;;;8.20;1.00;;;;;;5121165;28;20221;-81
2023/12/31 12:56:23;;;;;;;0.63;0.63;;;8.20;1.00;;;;;;5109650;28;20225;-79
2023/12/31 12:58:49;;;;;;;0.80;0.80;;;8.20;1.00;;;;;;5109827;28;20178;-80
2023/12/31 13:01:15;;;;;;;0.70;0.70;;;8.20;1.00;;;;;;5100394;28;20288;-82
2023/12/31 13:03:41;;;;;;;0.70;0.70;;;8.20;1.00;;;;;;5113621;28;20184;-82